createdAt,value
2019-01-08T00:02:07.532Z,6.67
2019-01-08T00:04:48.959Z,4.30
2019-01-08T00:07:30.569Z,7.30
2019-01-08T00:10:12.033Z,7.43
2019-01-08T00:12:52.819Z,6.80
2019-01-08T00:15:33.737Z,8.07
2019-01-08T00:18:15.241Z,7.93
2019-01-08T00:20:56.073Z,8.10
2019-01-08T00:23:37.611Z,5.87
2019-01-08T00:26:18.348Z,6.90
2019-01-08T00:28:59.160Z,7.50
2019-01-08T00:31:39.844Z,6.07
2019-01-08T00:34:21.385Z,9.00
2019-01-08T00:37:02.757Z,10.60
2019-01-08T00:39:43.587Z,9.50
2019-01-08T00:42:25.023Z,6.20
2019-01-08T00:45:05.801Z,8.03
2019-01-08T00:47:47.333Z,8.13
2019-01-08T00:50:28.181Z,8.57
2019-01-08T00:53:09.766Z,8.30
2019-01-08T00:55:51.317Z,8.30
2019-01-08T00:58:32.847Z,7.67
2019-01-08T01:01:14.276Z,9.20
2019-01-08T01:03:55.565Z,7.00
2019-01-08T01:06:37.047Z,5.30
2019-01-08T01:09:17.665Z,7.97
2019-01-08T01:11:59.081Z,7.67
2019-01-08T01:14:40.549Z,8.93
2019-01-08T01:17:22.032Z,4.40
2019-01-08T01:20:03.715Z,7.10
2019-01-08T01:22:44.448Z,8.03
2019-01-08T01:25:26.054Z,9.43
2019-01-08T01:28:07.322Z,9.03
2019-01-08T01:30:48.010Z,7.07
2019-01-08T01:33:28.657Z,8.13
2019-01-08T01:36:09.634Z,7.73
2019-01-08T01:38:51.123Z,8.47
2019-01-08T01:41:32.630Z,8.77
2019-01-08T01:44:14.232Z,8.60
2019-01-08T01:46:55.762Z,8.57
2019-01-08T01:49:37.121Z,8.93
2019-01-08T01:52:18.642Z,8.30
2019-01-08T01:54:59.333Z,9.23
2019-01-08T01:57:40.853Z,8.17
2019-01-08T02:00:22.344Z,8.43
2019-01-08T02:03:03.753Z,9.23
2019-01-08T02:05:44.636Z,6.33
2019-01-08T02:08:26.235Z,9.93
2019-01-08T02:11:07.851Z,6.13
2019-01-08T02:13:48.617Z,8.10
2019-01-08T02:16:29.405Z,8.53
2019-01-08T02:19:10.672Z,9.27
2019-01-08T02:21:51.423Z,9.40
2019-01-08T02:24:32.944Z,8.63
2019-01-08T02:27:14.385Z,8.13
2019-01-08T02:29:55.330Z,7.53
2019-01-08T02:32:36.720Z,5.37
2019-01-08T02:35:18.350Z,7.07
2019-01-08T02:37:59.814Z,8.10
2019-01-08T02:40:41.185Z,6.70
2019-01-08T02:43:21.906Z,7.63
2019-01-08T02:46:03.383Z,3.00
2019-01-08T02:48:44.954Z,6.60
2019-01-08T02:51:26.285Z,8.83
2019-01-08T02:54:07.272Z,8.37
2019-01-08T02:56:47.948Z,5.37
2019-01-08T02:59:28.616Z,7.17
2019-01-08T03:02:10.225Z,7.63
2019-01-08T03:04:52.049Z,5.97
2019-01-08T03:07:33.279Z,6.83
2019-01-08T03:10:14.811Z,6.77
2019-01-08T03:12:56.197Z,5.80
2019-01-08T03:15:37.581Z,7.20
2019-01-08T03:18:19.269Z,5.10
2019-01-08T03:21:00.488Z,6.60
2019-01-08T03:23:41.156Z,6.07
2019-01-08T03:26:22.095Z,5.33
2019-01-08T03:29:03.118Z,6.10
2019-01-08T03:31:43.787Z,5.83
2019-01-08T03:34:24.522Z,5.90
2019-01-08T03:37:05.953Z,6.80
2019-01-08T03:39:47.476Z,5.23
2019-01-08T03:42:28.145Z,6.80
2019-01-08T03:45:09.569Z,7.47
2019-01-08T03:47:50.913Z,4.90
2019-01-08T03:50:32.344Z,7.07
2019-01-08T03:53:13.898Z,3.50
2019-01-08T03:55:55.230Z,5.50
2019-01-08T03:58:36.627Z,3.57
2019-01-08T04:01:17.997Z,5.73
2019-01-08T04:03:58.893Z,5.40
2019-01-08T04:06:39.617Z,6.40
2019-01-08T04:09:21.075Z,5.50
2019-01-08T04:12:01.722Z,6.30
2019-01-08T04:14:43.283Z,4.93
2019-01-08T04:20:44.057Z,5.30
2019-01-08T04:23:25.519Z,4.90
2019-01-08T04:26:06.973Z,4.97
2019-01-08T04:28:48.585Z,5.30
2019-01-08T04:31:29.214Z,4.27
2019-01-08T04:34:10.885Z,3.73
2019-01-08T04:36:52.351Z,4.40
2019-01-08T04:39:33.094Z,5.07
2019-01-08T04:42:14.453Z,5.17
2019-01-08T04:44:56.015Z,2.83
2019-01-08T04:47:37.453Z,5.00
2019-01-08T04:50:18.406Z,4.70
2019-01-08T04:52:59.210Z,5.93
2019-01-08T04:55:40.704Z,3.83
2019-01-08T04:58:21.884Z,4.70
2019-01-08T05:01:02.921Z,5.00
2019-01-08T05:03:43.617Z,4.80
2019-01-08T05:06:24.347Z,3.43
2019-01-08T05:09:05.789Z,3.00
2019-01-08T05:11:46.429Z,4.30
2019-01-08T05:14:27.163Z,4.10
2019-01-08T05:17:08.807Z,3.60
2019-01-08T05:19:49.575Z,3.53
2019-01-08T05:22:30.389Z,3.40
2019-01-08T05:25:11.157Z,3.30
2019-01-08T05:27:52.009Z,3.07
2019-01-08T05:30:33.019Z,4.33
2019-01-08T05:33:14.602Z,3.03
2019-01-08T05:35:55.345Z,3.30
2019-01-08T05:38:36.066Z,3.00
2019-01-08T05:41:17.518Z,3.10
2019-01-08T05:43:58.391Z,3.07
2019-01-08T05:46:40.010Z,2.77
2019-01-08T05:49:20.961Z,3.30
2019-01-08T05:52:01.649Z,2.63
2019-01-08T05:54:42.434Z,3.20
2019-01-08T05:57:23.238Z,2.80
2019-01-08T06:03:09.935Z,2.40
2019-01-08T06:05:51.466Z,2.53
2019-01-08T06:08:33.078Z,2.27
2019-01-08T06:11:13.793Z,2.60
2019-01-08T06:13:54.681Z,2.63
2019-01-08T06:16:35.518Z,2.30
2019-01-08T06:19:16.226Z,2.73
2019-01-08T06:21:57.834Z,2.43
2019-01-08T06:24:39.448Z,2.50
2019-01-08T06:30:06.593Z,2.07
2019-01-08T06:32:47.855Z,2.43
2019-01-08T06:35:28.641Z,1.93
2019-01-08T06:40:57.526Z,2.30
2019-01-08T06:43:35.013Z,1.80
2019-01-08T06:46:16.496Z,1.60
2019-01-08T06:48:57.158Z,1.27
2019-01-08T06:51:37.950Z,1.27
2019-01-08T06:54:19.469Z,1.67
2019-01-08T06:57:01.969Z,1.90
2019-01-08T06:59:43.613Z,1.30
2019-01-08T07:02:24.851Z,1.30
2019-01-08T07:05:05.856Z,1.90
2019-01-08T07:07:46.532Z,1.47
2019-01-08T07:10:27.363Z,1.50
2019-01-08T07:13:08.803Z,1.20
2019-01-08T07:15:49.656Z,1.37
2019-01-08T07:18:30.342Z,1.17
2019-01-08T07:21:11.949Z,1.33
2019-01-08T07:23:53.283Z,1.40
2019-01-08T07:26:34.814Z,1.50
2019-01-08T07:29:16.444Z,1.73
2019-01-08T07:31:57.450Z,1.30
2019-01-08T07:37:21.240Z,1.30
2019-01-08T07:40:01.902Z,1.53
2019-01-08T07:42:43.503Z,1.60
2019-01-08T07:45:24.506Z,1.17
2019-01-08T07:48:05.366Z,1.50
2019-01-08T07:50:46.124Z,1.60
2019-01-08T07:53:27.573Z,1.43
2019-01-08T07:56:08.446Z,1.60
2019-01-08T07:58:49.119Z,1.10
2019-01-08T08:01:29.982Z,1.43
2019-01-08T08:04:10.898Z,1.60
2019-01-08T08:10:00.709Z,1.60
2019-01-08T08:12:42.073Z,1.87
2019-01-08T08:15:23.612Z,1.60
2019-01-08T08:18:04.504Z,1.27
2019-01-08T08:20:45.979Z,1.40
2019-01-08T08:23:26.828Z,1.70
2019-01-08T08:28:51.378Z,1.50
2019-01-08T08:31:32.091Z,1.80
2019-01-08T08:34:13.535Z,2.10
2019-01-08T08:36:55.237Z,1.87
2019-01-08T08:39:36.657Z,1.70
2019-01-08T08:42:17.457Z,1.60
2019-01-08T08:44:58.243Z,1.50
2019-01-08T08:47:39.761Z,1.67
2019-01-08T08:50:20.566Z,2.33
2019-01-08T08:53:02.093Z,2.20
2019-01-08T08:55:43.661Z,1.90
2019-01-08T08:58:24.374Z,2.40
2019-01-08T09:04:25.193Z,1.83
2019-01-08T09:07:05.907Z,2.70
2019-01-08T09:09:46.598Z,2.27
2019-01-08T09:12:27.412Z,2.20
2019-01-08T09:15:08.354Z,2.43
2019-01-08T09:17:49.897Z,2.63
2019-01-08T09:20:30.769Z,2.33
2019-01-08T09:23:11.688Z,2.00
2019-01-08T09:25:53.436Z,2.70
2019-01-08T09:28:34.905Z,2.00
2019-01-08T09:33:58.689Z,2.70
2019-01-08T09:36:40.275Z,1.93
2019-01-08T09:39:21.743Z,2.07
2019-01-08T09:42:02.636Z,2.80
2019-01-08T09:44:44.175Z,2.60
2019-01-08T09:47:24.947Z,3.17
2019-01-08T09:50:05.671Z,2.27
2019-01-08T09:52:47.175Z,3.00
2019-01-08T09:55:28.732Z,3.23
2019-01-08T09:58:10.128Z,3.30
2019-01-08T10:00:51.023Z,2.87
2019-01-08T10:03:31.766Z,2.43
2019-01-08T10:06:13.332Z,2.50
2019-01-08T10:08:54.517Z,3.10
2019-01-08T10:14:40.742Z,2.33
2019-01-08T10:17:21.625Z,2.57
2019-01-08T10:20:02.512Z,2.53
2019-01-08T10:22:43.318Z,2.70
2019-01-08T10:25:24.877Z,2.70
2019-01-08T10:28:05.520Z,1.77
2019-01-08T10:30:46.250Z,3.17
2019-01-08T10:33:28.086Z,2.30
2019-01-08T10:36:09.610Z,3.20
2019-01-08T10:38:50.800Z,2.50
2019-01-08T10:41:32.272Z,2.40
2019-01-08T10:44:13.044Z,2.63
2019-01-08T10:46:54.390Z,1.80
2019-01-08T10:49:35.296Z,2.10
2019-01-08T10:52:16.174Z,2.70
2019-01-08T10:54:57.068Z,1.97
2019-01-08T10:57:37.760Z,1.90
2019-01-08T11:00:18.446Z,2.70
2019-01-08T11:02:59.986Z,2.90
2019-01-08T11:05:41.132Z,1.50
2019-01-08T11:08:21.766Z,2.40
2019-01-08T11:11:02.453Z,1.97
2019-01-08T11:13:43.155Z,2.40
2019-01-08T11:16:24.573Z,2.80
2019-01-08T11:19:05.944Z,2.40
2019-01-08T11:21:47.440Z,2.70
2019-01-08T11:24:28.202Z,2.60
2019-01-08T11:27:08.866Z,2.77
2019-01-08T11:29:50.455Z,2.23
2019-01-08T11:32:31.193Z,2.60
2019-01-08T11:35:11.933Z,2.30
2019-01-08T11:37:53.402Z,2.33
2019-01-08T11:40:35.006Z,2.90
2019-01-08T11:43:15.918Z,2.20
2019-01-08T11:45:57.325Z,2.00
2019-01-08T11:48:38.940Z,2.00
2019-01-08T11:51:19.868Z,1.67
2019-01-08T11:54:01.543Z,2.20
2019-01-08T11:56:42.234Z,2.30
2019-01-08T11:59:23.255Z,1.90
2019-01-08T12:02:04.155Z,3.30
2019-01-08T12:04:45.682Z,2.60
2019-01-08T12:07:31.134Z,2.50
2019-01-08T12:10:09.093Z,2.00
2019-01-08T12:12:50.015Z,2.87
2019-01-08T12:15:30.765Z,2.63
2019-01-08T12:18:12.161Z,3.17
2019-01-08T12:20:52.993Z,2.00
2019-01-08T12:23:34.551Z,2.40
2019-01-08T12:26:15.340Z,2.73
2019-01-08T12:28:56.037Z,2.40
2019-01-08T12:31:37.522Z,1.90
2019-01-08T12:34:18.520Z,2.53
2019-01-08T12:36:59.933Z,2.30
2019-01-08T12:39:41.499Z,2.30
2019-01-08T12:42:22.242Z,2.50
2019-01-08T12:45:02.885Z,2.43
2019-01-08T12:47:44.458Z,1.87
2019-01-08T12:50:25.821Z,2.40
2019-01-08T12:53:07.478Z,2.37
2019-01-08T12:55:48.157Z,1.80
2019-01-08T12:58:29.742Z,1.97
2019-01-08T13:01:11.090Z,2.27
2019-01-08T13:03:52.619Z,2.80
2019-01-08T13:06:33.249Z,1.63
2019-01-08T13:09:13.969Z,2.27
2019-01-08T13:11:55.205Z,2.27
2019-01-08T13:14:35.798Z,1.97
2019-01-08T13:17:17.489Z,1.77
2019-01-08T13:19:58.266Z,2.27
2019-01-08T13:22:39.153Z,1.73
2019-01-08T13:28:29.009Z,1.67
2019-01-08T13:31:09.658Z,1.33
2019-01-08T13:33:50.403Z,1.97
2019-01-08T13:36:31.113Z,1.97
2019-01-08T13:39:12.506Z,1.20
2019-01-08T13:41:54.004Z,1.40
2019-01-08T13:44:35.432Z,1.53
2019-01-08T13:47:16.762Z,1.43
2019-01-08T13:49:57.437Z,1.30
2019-01-08T13:52:38.302Z,1.43
2019-01-08T13:55:19.768Z,0.90
2019-01-08T13:58:00.422Z,1.27
2019-01-08T14:00:41.270Z,1.30
2019-01-08T14:03:21.983Z,0.73
2019-01-08T14:06:02.624Z,1.60
2019-01-08T14:08:43.341Z,1.13
2019-01-08T14:11:24.880Z,1.33
2019-01-08T14:14:06.367Z,1.67
2019-01-08T14:16:47.207Z,0.87
2019-01-08T14:19:28.903Z,1.33
2019-01-08T14:22:10.277Z,1.07
2019-01-08T14:24:51.709Z,1.20
2019-01-08T14:27:32.424Z,1.17
2019-01-08T14:30:13.285Z,1.40
2019-01-08T14:32:54.799Z,1.10
2019-01-08T14:35:36.215Z,1.50
2019-01-08T14:38:17.910Z,1.30
2019-01-08T14:40:59.414Z,0.93
2019-01-08T14:43:40.630Z,1.07
2019-01-08T14:46:21.418Z,1.10
2019-01-08T14:51:44.408Z,0.80
2019-01-08T14:54:25.211Z,1.37
2019-01-08T14:57:06.594Z,1.50
2019-01-08T14:59:47.299Z,1.17
2019-01-08T15:02:27.978Z,1.10
2019-01-08T15:05:09.481Z,1.83
2019-01-08T15:07:50.370Z,0.93
2019-01-08T15:10:31.297Z,1.10
2019-01-08T15:13:12.273Z,0.83
2019-01-08T15:15:52.988Z,1.10
2019-01-08T15:18:33.635Z,0.77
2019-01-08T15:21:15.080Z,1.80
2019-01-08T15:23:55.854Z,1.10
2019-01-08T15:26:37.319Z,1.40
2019-01-08T15:29:18.804Z,1.20
2019-01-08T15:32:00.357Z,1.13
2019-01-08T15:34:41.027Z,1.40
2019-01-08T15:37:21.763Z,1.40
2019-01-08T15:40:03.378Z,1.40
2019-01-08T15:42:44.919Z,1.00
2019-01-08T15:45:26.334Z,1.13
2019-01-08T15:48:07.310Z,1.33
2019-01-08T15:50:48.838Z,1.60
2019-01-08T15:53:30.430Z,1.60
2019-01-08T15:56:11.225Z,1.70
2019-01-08T15:58:52.635Z,2.17
2019-01-08T16:01:34.015Z,1.30
2019-01-08T16:04:14.780Z,0.87
2019-01-08T16:06:56.029Z,1.10
2019-01-08T16:09:36.862Z,1.20
2019-01-08T16:12:18.481Z,1.07
2019-01-08T16:14:59.166Z,1.57
2019-01-08T16:17:41.469Z,1.30
2019-01-08T16:23:42.351Z,1.60
2019-01-08T16:26:23.759Z,0.90
2019-01-08T16:29:05.284Z,1.50
2019-01-08T16:31:46.825Z,1.30
2019-01-08T16:34:27.430Z,1.47
2019-01-08T16:37:08.801Z,1.27
2019-01-08T16:39:50.371Z,1.00
2019-01-08T16:42:31.000Z,1.10
2019-01-08T16:45:11.712Z,1.30
2019-01-08T16:47:53.236Z,1.20
2019-01-08T16:53:17.890Z,1.30
2019-01-08T16:55:58.576Z,1.20
2019-01-08T16:58:39.293Z,1.70
2019-01-08T17:01:20.806Z,1.70
2019-01-08T17:04:02.238Z,1.50
2019-01-08T17:06:43.736Z,0.83
2019-01-08T17:09:24.507Z,1.57
2019-01-08T17:12:05.879Z,1.73
2019-01-08T17:14:46.580Z,1.50
2019-01-08T17:17:27.434Z,1.57
2019-01-08T17:20:08.582Z,2.30
2019-01-08T17:22:50.162Z,1.20
2019-01-08T17:25:31.657Z,1.90
2019-01-08T17:28:13.322Z,1.40
2019-01-08T17:30:54.166Z,1.70
2019-01-08T17:33:35.584Z,1.97
2019-01-08T17:36:16.742Z,1.67
2019-01-08T17:38:58.271Z,2.00
2019-01-08T17:41:39.206Z,1.00
2019-01-08T17:44:20.749Z,1.00
2019-01-08T17:47:02.078Z,1.70
2019-01-08T17:49:43.649Z,1.23
2019-01-08T17:52:25.220Z,1.70
2019-01-08T17:55:05.951Z,1.73
2019-01-08T17:57:47.353Z,1.47
2019-01-08T18:00:28.077Z,1.50
2019-01-08T18:03:08.742Z,1.53
2019-01-08T18:05:49.480Z,1.03
2019-01-08T18:08:31.045Z,1.40
2019-01-08T18:11:11.898Z,1.33
2019-01-08T18:13:52.689Z,2.03
2019-01-08T18:16:34.173Z,1.70
2019-01-08T18:19:15.011Z,1.30
2019-01-08T18:21:56.270Z,1.67
2019-01-08T18:24:36.948Z,2.17
2019-01-08T18:27:18.280Z,1.70
2019-01-08T18:29:59.802Z,2.00
2019-01-08T18:32:40.666Z,1.97
2019-01-08T18:35:21.486Z,1.57
2019-01-08T18:38:02.394Z,2.03
2019-01-08T18:40:43.080Z,1.67
2019-01-08T18:43:24.669Z,1.90
2019-01-08T18:46:06.694Z,1.70
2019-01-08T18:51:27.343Z,2.10
2019-01-08T18:54:07.986Z,1.70
2019-01-08T18:56:48.946Z,2.07
2019-01-08T18:59:29.795Z,1.33
2019-01-08T19:02:10.806Z,1.60
2019-01-08T19:04:51.816Z,2.17
2019-01-08T19:07:32.546Z,1.80
2019-01-08T19:10:13.640Z,0.90
2019-01-08T19:12:54.531Z,1.90
2019-01-08T19:15:37.094Z,1.90
2019-01-08T19:21:37.096Z,1.90
2019-01-08T19:24:18.697Z,1.40
2019-01-08T19:27:00.176Z,1.20
2019-01-08T19:29:40.833Z,1.10
2019-01-08T19:32:22.432Z,1.33
2019-01-08T19:35:04.065Z,1.50
2019-01-08T19:37:44.858Z,1.57
2019-01-08T19:40:26.438Z,1.13
2019-01-08T19:43:08.086Z,1.57
2019-01-08T19:45:48.773Z,1.53
2019-01-08T19:48:29.695Z,1.27
2019-01-08T19:51:11.211Z,1.57
2019-01-08T19:53:52.908Z,1.70
2019-01-08T19:56:34.435Z,1.50
2019-01-08T19:59:15.501Z,1.37
2019-01-08T20:01:56.221Z,1.00
2019-01-08T20:04:37.453Z,1.00
2019-01-08T20:07:19.738Z,1.47
2019-01-08T20:10:00.334Z,1.03
2019-01-08T20:12:41.179Z,1.10
2019-01-08T20:15:22.000Z,1.43
2019-01-08T20:18:03.270Z,1.60
2019-01-08T20:20:44.099Z,1.20
2019-01-08T20:23:25.536Z,1.40
2019-01-08T20:26:06.186Z,1.23
2019-01-08T20:28:47.075Z,0.80
2019-01-08T20:31:27.911Z,1.00
2019-01-08T20:34:09.379Z,1.30
2019-01-08T20:36:50.910Z,1.27
2019-01-08T20:39:31.942Z,1.40
2019-01-08T20:42:13.009Z,1.40
2019-01-08T20:44:54.345Z,1.63
2019-01-08T20:47:35.573Z,1.23
2019-01-08T20:50:16.880Z,1.73
2019-01-08T20:52:58.525Z,1.10
2019-01-08T20:55:39.348Z,1.57
2019-01-08T20:58:27.544Z,1.40
2019-01-08T21:01:03.449Z,1.37
2019-01-08T21:03:45.138Z,1.63
2019-01-08T21:06:26.490Z,0.90
2019-01-08T21:09:07.763Z,1.13
2019-01-08T21:11:49.201Z,2.00
2019-01-08T21:14:30.671Z,0.80
2019-01-08T21:17:11.915Z,1.17
2019-01-08T21:19:53.598Z,1.27
2019-01-08T21:22:34.913Z,1.40
2019-01-08T21:25:16.502Z,1.60
2019-01-08T21:27:58.133Z,1.60
2019-01-08T21:30:39.777Z,1.10
2019-01-08T21:33:21.426Z,1.30
2019-01-08T21:36:02.297Z,1.47
2019-01-08T21:38:43.470Z,1.43
2019-01-08T21:41:24.111Z,1.20
2019-01-08T21:44:05.818Z,1.57
2019-01-08T21:46:47.014Z,1.47
2019-01-08T21:49:28.637Z,1.17
2019-01-08T21:52:10.250Z,1.67
2019-01-08T21:54:51.871Z,1.40
2019-01-08T21:57:32.487Z,1.43
2019-01-08T22:00:13.878Z,1.80
2019-01-08T22:02:54.588Z,1.20
2019-01-08T22:05:36.197Z,1.50
2019-01-08T22:08:16.991Z,1.57
2019-01-08T22:10:58.441Z,1.90
2019-01-08T22:13:39.392Z,1.70
2019-01-08T22:16:20.106Z,1.50
2019-01-08T22:19:00.813Z,1.60
2019-01-08T22:21:42.215Z,1.50
2019-01-08T22:24:23.689Z,1.67
2019-01-08T22:27:05.099Z,1.70
2019-01-08T22:29:46.478Z,1.67
2019-01-08T22:32:27.732Z,2.03
2019-01-08T22:35:09.257Z,1.70
2019-01-08T22:37:50.732Z,1.10
2019-01-08T22:40:31.583Z,1.53
2019-01-08T22:43:12.987Z,1.10
2019-01-08T22:45:54.514Z,0.97
2019-01-08T22:48:35.237Z,1.43
2019-01-08T22:51:16.751Z,1.37
2019-01-08T22:53:57.448Z,1.40
2019-01-08T22:56:38.322Z,1.40
2019-01-08T22:59:19.010Z,1.53
2019-01-08T23:02:00.554Z,1.47
2019-01-08T23:04:41.942Z,1.63
2019-01-08T23:07:23.518Z,1.40
2019-01-08T23:10:04.193Z,1.50
2019-01-08T23:12:44.842Z,1.70
2019-01-08T23:15:25.634Z,1.90
2019-01-08T23:18:07.209Z,1.47
2019-01-08T23:20:48.698Z,1.13
2019-01-08T23:23:30.351Z,1.47
2019-01-08T23:26:11.080Z,1.80
2019-01-08T23:28:51.906Z,1.30
2019-01-08T23:31:33.429Z,1.23
2019-01-08T23:34:14.196Z,1.20
2019-01-08T23:36:55.714Z,1.13
2019-01-08T23:39:36.366Z,1.13
2019-01-08T23:42:17.931Z,1.90
2019-01-08T23:44:59.453Z,1.73
2019-01-08T23:47:40.161Z,1.30
2019-01-08T23:50:21.562Z,1.80
2019-01-08T23:53:03.202Z,1.33
2019-01-08T23:55:44.731Z,1.33
2019-01-08T23:58:26.106Z,1.50
